Station info - map view · info · telemetry · weather · raw · status · beacons · messages · bulletins · browse · moving · my account
Callsign, ship name or locator: Clear       
It is possible to search using wildcards (*?) after a prefix. Example: OH*
APRS station KJ4NNC - show graphs
Map loading...
Comment: N72LW
Mic-E message: En route
Last status: MT8000FA v1.0
Location: 33°16.39' N 84°32.12' W - locator EM73RG55SN - show map - static map
2.3 miles Southeast bearing 152° from Senoia, Coweta County, Georgia, United States [?]
9.9 miles Southwest bearing 203° from Shannon, Fayette County, Georgia, United States
33.9 miles South bearing 195° from Atlanta, Fulton County, Georgia, United States
61.9 miles Northeast bearing 25° from Columbus, Muscogee County, Georgia, United States
Last position: 2019-04-24 16:38:36 EDT (7h16m ago)
2019-04-24 16:38:36 EDT local time at Senoia, United States [?]
Altitude: 1155 ft
Course: 35°
Speed: 108 MPH
Last path: KJ4NNC>SS1V3Y via WB4GNA-7,WIDE1*,qAR,N4XWC (good)
Positions stored: 14124
Packet rate: 119 seconds between packets on average during 1190 seconds.
Stations near current position of KJ4NNC - show more
callsign distance last heard - EDT      callsign distance last heard - EDT
KN4LVO B4.7 miles 21°2019-04-24 23:49:57 KN4LVO-B4.7 miles 21°2019-04-24 23:50:08
WX4LEC5.6 miles 78°2019-04-24 18:40:51 AG4F-105.8 miles 75°2019-04-15 19:16:45
AG4F-85.8 miles 75°2019-04-19 20:47:27 AG4F-95.8 miles 75°2019-04-15 19:05:45
AG4ZR-106.2 miles 237°2019-04-24 23:54:30 N9GQA B6.2 miles 135°2019-04-24 23:43:36
N9GQA-B6.2 miles 135°2019-04-24 23:43:46 N4PTC6.2 miles 340°2019-04-06 20:02:52
KI4GWT6.8 miles 111°2019-04-24 23:33:36 KD4SHK-107.1 miles 300°2019-04-19 20:26:21
WB1CCY7.2 miles 350°2019-04-08 05:29:23 AA9ZI-77.4 miles 349°2019-04-02 12:54:01
W4PTC7.7 miles 358°2019-04-04 20:05:53 AJ4P7.9 miles 21°2019-04-24 23:45:08
X189148.3 miles 346°2019-04-14 17:24:06 EW94678.5 miles 29°2019-04-24 23:54:38
K6BET-79.5 miles 336°2019-04-22 02:49:47 K6BET9.5 miles 336°2019-04-09 22:33:46
Stations which heard KJ4NNC directly on radio –
callsign pkts first heard - EDT last heard longest (tx => rx) longest at - EDT
N4XWC 6 2019-04-10 10:44:05 2019-04-10 15:24:44 EM73LN > EM63NU 104.1 miles 282° 2019-04-10 10:44:05
AB4KN-2 8 2019-04-10 16:04:26 2019-04-17 11:19:39 EM73RG > EM73RL 14.5 miles 356° 2019-04-17 11:19:39
AE4XO-2 3 2019-04-17 11:03:49 2019-04-24 16:36:38 EM73PJ > EM82CX 61.2 miles 120° 2019-04-17 11:03:49
W1ARN-1 5 2019-04-10 14:40:04 2019-04-10 15:12:49 EM74BW > EM66SL 111.9 miles 342° 2019-04-10 15:12:49
W4DKZ 1 2019-04-10 15:32:40 2019-04-10 15:32:40 EM74ID > EM74VB 64.2 miles 95° 2019-04-10 15:32:40
KA4EMA-3 2 2019-04-10 15:16:48 2019-04-10 15:18:47 EM74DQ > EM75IE 41.7 miles 33° 2019-04-10 15:18:47
K4UAN-3 1 2019-04-10 14:48:01 2019-04-10 14:48:01 EM65VH > EM76HB 70.7 miles 39° 2019-04-10 14:48:01
WB4GNA-7 11 2019-04-10 16:02:26 2019-04-24 16:38:36 EM73TH > EM73CL 82.9 miles 280° 2019-04-17 11:15:40
KJ4VLD-1 2 2019-04-10 10:32:12 2019-04-10 16:00:27 EM73QH > EM84AO 98.6 miles 21° 2019-04-10 10:32:12
KD4YDD-1 2 2019-04-10 15:56:28 2019-04-10 15:58:27 EM73NJ > EM84AB 71.1 miles 49° 2019-04-10 15:56:28
KI4NBY 1 2019-04-10 15:40:36 2019-04-10 15:40:36 EM73KU > EM73TW 44.0 miles 80° 2019-04-10 15:40:36
WB4BXO-3 8 2019-04-23 14:50:05 2019-04-24 16:30:39 EM73OB > EM73KA 16.7 miles 263° 2019-04-24 16:30:39
N4LTX-4 1 2019-04-23 15:01:59 2019-04-23 15:01:59 EM72IQ > EM72EK 24.5 miles 224° 2019-04-23 15:01:59
W4AP-2 3 2019-04-23 15:00:00 2019-04-23 15:05:57 EM72JS > EM62VM 57.9 miles 254° 2019-04-23 15:00:00
KD4UYP-10 4 2019-04-10 15:26:43 2019-04-10 15:46:33 EM74GJ > EM74XC 82.2 miles 103° 2019-04-10 15:26:43
N4NE-2 9 2019-04-17 10:57:49 2019-04-24 16:34:37 EM73OC > EM74WF 86.6 miles 25° 2019-04-23 14:48:06
K4EGC-1 1 2019-04-10 11:29:41 2019-04-10 11:29:41 EM65VI > EM65WJ 7.4 miles 57° 2019-04-10 11:29:41
NA4ME-4 2 2019-04-10 10:57:57 2019-04-10 11:01:55 EM74HD > EM74KT 48.6 miles 20° 2019-04-10 10:57:57
K4MUW-1 2 2019-04-10 10:52:00 2019-04-10 10:53:59 EM73JV > EM74KF 24.1 miles 11° 2019-04-10 10:52:00
N4BFR-10 1 2019-04-10 15:34:39 2019-04-10 15:34:39 EM74IC > EM73UV 56.6 miles 103° 2019-04-10 15:34:39
KI4UJY-5 1 2019-04-10 14:50:01 2019-04-10 14:50:01 EM65VI > EM65UH 3.6 miles 228° 2019-04-10 14:50:01
KM4BJZ-1 11 2019-04-10 10:59:56 2019-04-10 11:27:41 EM74GF > EM75FH 76.3 miles 355° 2019-04-10 10:59:56
N4UUJ-1 15 2019-04-10 11:19:45 2019-04-10 15:10:51 EM65VJ > EM75EI 31.6 miles 93° 2019-04-10 14:58:56
N4TQU-1 4 2019-04-10 10:46:04 2019-04-10 15:42:35 EM74HH > EM74VC 70.8 miles 102° 2019-04-10 15:28:42
WX4BK-13 13 2019-04-10 10:34:10 2019-04-10 15:54:29 EM73PH > EM73MT 38.5 miles 333° 2019-04-10 10:34:10
W4LNX 1 2019-04-10 11:15:47 2019-04-10 11:15:47 EM74BU > EM64XQ 14.3 miles 227° 2019-04-10 11:15:47
K4NHA-10 1 2019-04-10 15:14:49 2019-04-10 15:14:49 EM74CU > EM74AR 12.7 miles 225° 2019-04-10 15:14:49
N0QFQ-10 3 2019-04-23 14:44:08 2019-04-23 14:54:03 EM72LW > EM73PL 39.4 miles 23° 2019-04-23 14:54:03

Only position packets which were originated by the station are shown here. The range statistics show some extra long hops, because some digipeaters do not correctly add themselves to the digipeater path. Please check the raw packets.
About this site
This page shows real-time information collected from the Automatic Position Reporting System Internet network (APRS-IS). APRS is used by amateur (ham) radio operators to transmit real-time position information, weather data, telemetry and messages over the radio. A vehicle equipped with a GPS receiver, a VHF transmitter or HF transceiver and a small computer device called a tracker transmits it's location, speed and course in a small data packet, which is then received by a nearby iGate receiving site which forwards the packet on the Internet. Systems connected to the Internet can send information on the APRS-IS without a radio transmitter, or collect and display information transmitted anywhere in the world.
FAQ · Blog · Discussion group · Linking to aprs.fi · AIS sites · Service status · Database statistics · Advertising on aprs.fi · Technical details · API · Change log · Planned changes · Credits and thanks · Terms Of Service · iPhone/iPad APRS